sensor_id;sensor_type;location;lat;lon;timestamp;P1;durP1;ratioP1;P2;durP2;ratioP2
49722;SDS011;43484;43.608;1.458;2023-04-19T00:01:26;2.40;;;2.15;;
49722;SDS011;43484;43.608;1.458;2023-04-19T00:03:53;1.98;;;1.70;;
49722;SDS011;43484;43.608;1.458;2023-04-19T00:06:22;2.70;;;1.98;;
49722;SDS011;43484;43.608;1.458;2023-04-19T00:08:49;4.28;;;2.03;;
49722;SDS011;43484;43.608;1.458;2023-04-19T00:11:16;3.80;;;1.88;;
49722;SDS011;43484;43.608;1.458;2023-04-19T00:13:43;3.65;;;1.60;;
49722;SDS011;43484;43.608;1.458;2023-04-19T00:16:10;4.32;;;1.88;;
49722;SDS011;43484;43.608;1.458;2023-04-19T00:18:36;5.57;;;2.17;;
49722;SDS011;43484;43.608;1.458;2023-04-19T00:21:04;5.50;;;1.73;;
49722;SDS011;43484;43.608;1.458;2023-04-19T00:23:30;2.58;;;1.75;;
49722;SDS011;43484;43.608;1.458;2023-04-19T00:25:57;2.95;;;2.15;;
49722;SDS011;43484;43.608;1.458;2023-04-19T00:28:24;5.10;;;2.10;;
49722;SDS011;43484;43.608;1.458;2023-04-19T00:30:51;3.92;;;2.10;;
49722;SDS011;43484;43.608;1.458;2023-04-19T00:33:18;3.00;;;1.77;;
49722;SDS011;43484;43.608;1.458;2023-04-19T00:35:45;2.90;;;1.63;;
49722;SDS011;43484;43.608;1.458;2023-04-19T00:38:11;2.35;;;1.85;;
49722;SDS011;43484;43.608;1.458;2023-04-19T00:40:38;2.35;;;1.92;;
49722;SDS011;43484;43.608;1.458;2023-04-19T00:43:04;2.40;;;2.20;;
49722;SDS011;43484;43.608;1.458;2023-04-19T00:45:31;2.42;;;2.22;;
49722;SDS011;43484;43.608;1.458;2023-04-19T00:48:00;3.53;;;1.80;;
49722;SDS011;43484;43.608;1.458;2023-04-19T00:50:27;2.28;;;2.08;;
49722;SDS011;43484;43.608;1.458;2023-04-19T00:52:55;4.55;;;2.30;;
49722;SDS011;43484;43.608;1.458;2023-04-19T00:55:22;3.03;;;2.20;;
49722;SDS011;43484;43.608;1.458;2023-04-19T00:57:49;3.13;;;2.17;;
49722;SDS011;43484;43.608;1.458;2023-04-19T01:00:17;4.15;;;2.10;;
49722;SDS011;43484;43.608;1.458;2023-04-19T01:02:45;5.65;;;1.77;;
49722;SDS011;43484;43.608;1.458;2023-04-19T01:05:13;3.40;;;1.80;;
49722;SDS011;43484;43.608;1.458;2023-04-19T01:07:40;2.45;;;2.22;;
49722;SDS011;43484;43.608;1.458;2023-04-19T01:10:08;3.58;;;2.20;;
49722;SDS011;43484;43.608;1.458;2023-04-19T01:12:35;4.43;;;2.00;;
49722;SDS011;43484;43.608;1.458;2023-04-19T01:15:01;2.58;;;2.05;;
49722;SDS011;43484;43.608;1.458;2023-04-19T01:17:28;6.15;;;2.15;;
49722;SDS011;43484;43.608;1.458;2023-04-19T01:19:58;2.75;;;2.28;;
49722;SDS011;43484;43.608;1.458;2023-04-19T01:22:29;9.82;;;2.15;;
49722;SDS011;43484;43.608;1.458;2023-04-19T01:24:55;8.55;;;2.38;;
49722;SDS011;43484;43.608;1.458;2023-04-19T01:27:22;4.65;;;2.80;;
49722;SDS011;43484;43.608;1.458;2023-04-19T01:29:49;4.63;;;3.00;;
49722;SDS011;43484;43.608;1.458;2023-04-19T01:32:16;4.15;;;1.98;;
49722;SDS011;43484;43.608;1.458;2023-04-19T01:34:42;6.00;;;2.53;;
49722;SDS011;43484;43.608;1.458;2023-04-19T01:37:09;3.78;;;2.22;;
49722;SDS011;43484;43.608;1.458;2023-04-19T01:39:36;2.88;;;2.63;;
49722;SDS011;43484;43.608;1.458;2023-04-19T01:42:02;4.35;;;2.53;;
49722;SDS011;43484;43.608;1.458;2023-04-19T01:44:29;5.05;;;2.50;;
49722;SDS011;43484;43.608;1.458;2023-04-19T01:46:56;2.47;;;2.10;;
49722;SDS011;43484;43.608;1.458;2023-04-19T01:49:23;4.53;;;2.42;;
49722;SDS011;43484;43.608;1.458;2023-04-19T01:51:50;4.35;;;2.63;;
49722;SDS011;43484;43.608;1.458;2023-04-19T01:54:16;2.75;;;2.55;;
49722;SDS011;43484;43.608;1.458;2023-04-19T01:56:43;2.38;;;2.00;;
49722;SDS011;43484;43.608;1.458;2023-04-19T01:59:10;3.35;;;2.33;;
49722;SDS011;43484;43.608;1.458;2023-04-19T02:01:36;6.50;;;2.88;;
49722;SDS011;43484;43.608;1.458;2023-04-19T02:04:03;3.30;;;2.20;;
49722;SDS011;43484;43.608;1.458;2023-04-19T02:06:30;3.05;;;2.17;;
49722;SDS011;43484;43.608;1.458;2023-04-19T02:08:57;2.47;;;1.80;;
49722;SDS011;43484;43.608;1.458;2023-04-19T02:11:24;3.03;;;2.35;;
49722;SDS011;43484;43.608;1.458;2023-04-19T02:13:50;6.38;;;2.10;;
49722;SDS011;43484;43.608;1.458;2023-04-19T02:16:17;5.40;;;2.22;;
49722;SDS011;43484;43.608;1.458;2023-04-19T02:18:43;3.50;;;2.28;;
49722;SDS011;43484;43.608;1.458;2023-04-19T02:21:12;3.53;;;2.65;;
49722;SDS011;43484;43.608;1.458;2023-04-19T02:23:38;2.63;;;2.17;;
49722;SDS011;43484;43.608;1.458;2023-04-19T02:26:05;3.17;;;2.25;;
49722;SDS011;43484;43.608;1.458;2023-04-19T02:28:31;2.60;;;2.22;;
49722;SDS011;43484;43.608;1.458;2023-04-19T02:31:02;3.20;;;2.00;;
49722;SDS011;43484;43.608;1.458;2023-04-19T02:33:30;3.90;;;2.58;;
49722;SDS011;43484;43.608;1.458;2023-04-19T02:35:57;2.83;;;2.22;;
49722;SDS011;43484;43.608;1.458;2023-04-19T02:38:23;3.40;;;2.30;;
49722;SDS011;43484;43.608;1.458;2023-04-19T02:40:50;3.03;;;2.22;;
49722;SDS011;43484;43.608;1.458;2023-04-19T02:43:17;4.38;;;2.05;;
49722;SDS011;43484;43.608;1.458;2023-04-19T02:45:43;2.78;;;2.00;;
49722;SDS011;43484;43.608;1.458;2023-04-19T02:48:10;2.42;;;2.03;;
49722;SDS011;43484;43.608;1.458;2023-04-19T02:50:36;3.50;;;2.28;;
49722;SDS011;43484;43.608;1.458;2023-04-19T02:53:06;3.10;;;2.40;;
49722;SDS011;43484;43.608;1.458;2023-04-19T02:55:33;2.85;;;2.10;;
49722;SDS011;43484;43.608;1.458;2023-04-19T02:57:59;3.03;;;2.08;;
49722;SDS011;43484;43.608;1.458;2023-04-19T03:00:26;5.07;;;1.98;;
49722;SDS011;43484;43.608;1.458;2023-04-19T03:02:53;4.20;;;2.20;;
49722;SDS011;43484;43.608;1.458;2023-04-19T03:05:22;5.50;;;2.03;;
49722;SDS011;43484;43.608;1.458;2023-04-19T03:07:49;3.97;;;2.33;;
49722;SDS011;43484;43.608;1.458;2023-04-19T03:10:15;3.05;;;1.90;;
49722;SDS011;43484;43.608;1.458;2023-04-19T03:12:42;5.50;;;2.60;;
49722;SDS011;43484;43.608;1.458;2023-04-19T03:15:09;3.47;;;2.28;;
49722;SDS011;43484;43.608;1.458;2023-04-19T03:17:36;2.65;;;2.20;;
49722;SDS011;43484;43.608;1.458;2023-04-19T03:20:03;4.78;;;2.38;;
49722;SDS011;43484;43.608;1.458;2023-04-19T03:22:34;4.30;;;2.33;;
49722;SDS011;43484;43.608;1.458;2023-04-19T03:25:01;2.40;;;2.20;;
49722;SDS011;43484;43.608;1.458;2023-04-19T03:27:28;8.00;;;2.33;;
49722;SDS011;43484;43.608;1.458;2023-04-19T03:29:55;2.88;;;1.83;;
49722;SDS011;43484;43.608;1.458;2023-04-19T03:32:22;2.58;;;2.15;;
49722;SDS011;43484;43.608;1.458;2023-04-19T03:34:49;3.05;;;2.22;;
49722;SDS011;43484;43.608;1.458;2023-04-19T03:37:15;2.75;;;2.17;;
49722;SDS011;43484;43.608;1.458;2023-04-19T03:39:42;2.60;;;2.40;;
49722;SDS011;43484;43.608;1.458;2023-04-19T03:42:08;3.58;;;2.63;;
49722;SDS011;43484;43.608;1.458;2023-04-19T03:44:35;2.97;;;2.50;;
49722;SDS011;43484;43.608;1.458;2023-04-19T03:47:02;5.70;;;2.22;;
49722;SDS011;43484;43.608;1.458;2023-04-19T03:49:29;4.57;;;2.13;;
49722;SDS011;43484;43.608;1.458;2023-04-19T03:51:55;3.08;;;2.22;;
49722;SDS011;43484;43.608;1.458;2023-04-19T03:54:22;7.30;;;2.15;;
49722;SDS011;43484;43.608;1.458;2023-04-19T03:56:48;3.80;;;2.50;;
49722;SDS011;43484;43.608;1.458;2023-04-19T03:59:15;2.75;;;2.20;;
49722;SDS011;43484;43.608;1.458;2023-04-19T04:01:42;4.75;;;2.38;;
49722;SDS011;43484;43.608;1.458;2023-04-19T04:04:08;6.22;;;2.40;;
49722;SDS011;43484;43.608;1.458;2023-04-19T04:06:35;3.95;;;2.63;;
49722;SDS011;43484;43.608;1.458;2023-04-19T04:09:02;4.00;;;2.35;;
49722;SDS011;43484;43.608;1.458;2023-04-19T04:11:29;4.43;;;2.65;;
49722;SDS011;43484;43.608;1.458;2023-04-19T04:13:56;4.18;;;2.53;;
49722;SDS011;43484;43.608;1.458;2023-04-19T04:16:23;5.38;;;3.30;;
49722;SDS011;43484;43.608;1.458;2023-04-19T04:18:49;3.10;;;2.75;;
49722;SDS011;43484;43.608;1.458;2023-04-19T04:21:16;6.20;;;2.97;;
49722;SDS011;43484;43.608;1.458;2023-04-19T04:23:42;4.30;;;2.92;;
49722;SDS011;43484;43.608;1.458;2023-04-19T04:26:09;3.90;;;2.33;;
49722;SDS011;43484;43.608;1.458;2023-04-19T04:28:36;3.85;;;3.03;;
49722;SDS011;43484;43.608;1.458;2023-04-19T04:31:03;3.50;;;2.15;;
49722;SDS011;43484;43.608;1.458;2023-04-19T04:33:30;3.95;;;2.80;;
49722;SDS011;43484;43.608;1.458;2023-04-19T04:35:57;4.68;;;2.80;;
49722;SDS011;43484;43.608;1.458;2023-04-19T04:38:24;5.07;;;2.60;;
49722;SDS011;43484;43.608;1.458;2023-04-19T04:40:51;2.88;;;2.50;;
49722;SDS011;43484;43.608;1.458;2023-04-19T04:43:22;4.65;;;2.92;;
49722;SDS011;43484;43.608;1.458;2023-04-19T04:45:51;8.02;;;2.90;;
49722;SDS011;43484;43.608;1.458;2023-04-19T04:48:21;7.20;;;3.03;;
49722;SDS011;43484;43.608;1.458;2023-04-19T04:50:47;4.82;;;2.80;;
49722;SDS011;43484;43.608;1.458;2023-04-19T04:53:14;9.60;;;2.90;;
49722;SDS011;43484;43.608;1.458;2023-04-19T04:55:40;7.20;;;3.15;;
49722;SDS011;43484;43.608;1.458;2023-04-19T04:58:07;7.32;;;2.92;;
49722;SDS011;43484;43.608;1.458;2023-04-19T05:00:33;5.85;;;3.17;;
49722;SDS011;43484;43.608;1.458;2023-04-19T05:03:01;4.28;;;2.78;;
49722;SDS011;43484;43.608;1.458;2023-04-19T05:05:28;6.03;;;3.35;;
49722;SDS011;43484;43.608;1.458;2023-04-19T05:07:55;3.85;;;2.50;;
49722;SDS011;43484;43.608;1.458;2023-04-19T05:10:22;5.03;;;3.17;;
49722;SDS011;43484;43.608;1.458;2023-04-19T05:12:48;4.15;;;3.03;;
49722;SDS011;43484;43.608;1.458;2023-04-19T05:15:15;11.77;;;3.78;;
49722;SDS011;43484;43.608;1.458;2023-04-19T05:17:42;3.00;;;2.72;;
49722;SDS011;43484;43.608;1.458;2023-04-19T05:20:09;4.60;;;2.83;;
49722;SDS011;43484;43.608;1.458;2023-04-19T05:22:36;10.75;;;3.17;;
49722;SDS011;43484;43.608;1.458;2023-04-19T05:25:03;6.53;;;3.28;;
49722;SDS011;43484;43.608;1.458;2023-04-19T05:27:31;4.72;;;2.95;;
49722;SDS011;43484;43.608;1.458;2023-04-19T05:29:57;4.45;;;3.47;;
49722;SDS011;43484;43.608;1.458;2023-04-19T05:32:24;3.95;;;2.88;;
49722;SDS011;43484;43.608;1.458;2023-04-19T05:34:51;5.38;;;3.70;;
49722;SDS011;43484;43.608;1.458;2023-04-19T05:37:18;6.22;;;3.78;;
49722;SDS011;43484;43.608;1.458;2023-04-19T05:39:44;4.22;;;3.25;;
49722;SDS011;43484;43.608;1.458;2023-04-19T05:42:11;10.10;;;3.95;;
49722;SDS011;43484;43.608;1.458;2023-04-19T05:44:37;8.07;;;4.03;;
49722;SDS011;43484;43.608;1.458;2023-04-19T05:47:04;7.25;;;4.00;;
49722;SDS011;43484;43.608;1.458;2023-04-19T05:49:31;5.55;;;4.05;;
49722;SDS011;43484;43.608;1.458;2023-04-19T05:51:57;15.18;;;3.70;;
49722;SDS011;43484;43.608;1.458;2023-04-19T05:54:24;9.30;;;3.90;;
49722;SDS011;43484;43.608;1.458;2023-04-19T05:56:50;12.88;;;5.63;;
49722;SDS011;43484;43.608;1.458;2023-04-19T05:59:17;19.40;;;7.38;;
49722;SDS011;43484;43.608;1.458;2023-04-19T06:01:43;10.43;;;4.07;;
49722;SDS011;43484;43.608;1.458;2023-04-19T06:04:10;6.65;;;3.58;;
49722;SDS011;43484;43.608;1.458;2023-04-19T06:06:37;5.88;;;3.40;;
49722;SDS011;43484;43.608;1.458;2023-04-19T06:09:04;4.45;;;3.88;;
49722;SDS011;43484;43.608;1.458;2023-04-19T06:11:32;14.57;;;3.75;;
49722;SDS011;43484;43.608;1.458;2023-04-19T06:14:14;11.50;;;3.88;;
49722;SDS011;43484;43.608;1.458;2023-04-19T06:16:42;6.75;;;3.97;;
49722;SDS011;43484;43.608;1.458;2023-04-19T06:19:08;6.75;;;3.50;;
49722;SDS011;43484;43.608;1.458;2023-04-19T06:21:35;8.23;;;3.88;;
49722;SDS011;43484;43.608;1.458;2023-04-19T06:24:02;5.50;;;4.28;;
49722;SDS011;43484;43.608;1.458;2023-04-19T06:26:29;7.15;;;3.58;;
49722;SDS011;43484;43.608;1.458;2023-04-19T06:28:55;3.47;;;3.17;;
49722;SDS011;43484;43.608;1.458;2023-04-19T06:31:22;4.45;;;3.67;;
49722;SDS011;43484;43.608;1.458;2023-04-19T06:33:49;7.75;;;3.60;;
49722;SDS011;43484;43.608;1.458;2023-04-19T06:36:16;7.28;;;3.90;;
49722;SDS011;43484;43.608;1.458;2023-04-19T06:38:42;8.52;;;2.90;;
49722;SDS011;43484;43.608;1.458;2023-04-19T06:41:12;8.50;;;4.10;;
49722;SDS011;43484;43.608;1.458;2023-04-19T06:43:38;8.52;;;3.85;;
49722;SDS011;43484;43.608;1.458;2023-04-19T06:46:07;4.47;;;3.92;;
49722;SDS011;43484;43.608;1.458;2023-04-19T06:48:35;4.43;;;3.53;;
49722;SDS011;43484;43.608;1.458;2023-04-19T06:51:02;6.38;;;3.88;;
49722;SDS011;43484;43.608;1.458;2023-04-19T06:53:29;5.35;;;3.28;;
49722;SDS011;43484;43.608;1.458;2023-04-19T06:55:59;8.32;;;3.42;;
49722;SDS011;43484;43.608;1.458;2023-04-19T06:58:26;13.88;;;4.05;;
49722;SDS011;43484;43.608;1.458;2023-04-19T07:00:54;11.57;;;4.38;;
49722;SDS011;43484;43.608;1.458;2023-04-19T07:03:21;3.45;;;2.88;;
49722;SDS011;43484;43.608;1.458;2023-04-19T07:05:48;18.48;;;3.55;;
49722;SDS011;43484;43.608;1.458;2023-04-19T07:08:17;4.80;;;3.05;;
49722;SDS011;43484;43.608;1.458;2023-04-19T07:10:43;3.10;;;2.80;;
49722;SDS011;43484;43.608;1.458;2023-04-19T07:13:10;6.82;;;2.83;;
49722;SDS011;43484;43.608;1.458;2023-04-19T07:15:37;16.20;;;4.05;;
49722;SDS011;43484;43.608;1.458;2023-04-19T07:18:03;8.68;;;2.97;;
49722;SDS011;43484;43.608;1.458;2023-04-19T07:20:30;10.00;;;3.90;;
49722;SDS011;43484;43.608;1.458;2023-04-19T07:22:57;21.55;;;8.48;;
49722;SDS011;43484;43.608;1.458;2023-04-19T07:25:24;7.53;;;3.10;;
49722;SDS011;43484;43.608;1.458;2023-04-19T07:27:52;5.13;;;3.20;;
49722;SDS011;43484;43.608;1.458;2023-04-19T07:30:19;4.13;;;2.92;;
49722;SDS011;43484;43.608;1.458;2023-04-19T07:32:46;8.93;;;4.07;;
49722;SDS011;43484;43.608;1.458;2023-04-19T07:35:13;7.70;;;3.10;;
49722;SDS011;43484;43.608;1.458;2023-04-19T07:37:40;8.52;;;3.15;;
49722;SDS011;43484;43.608;1.458;2023-04-19T07:40:08;7.25;;;2.80;;
49722;SDS011;43484;43.608;1.458;2023-04-19T07:42:35;10.43;;;3.20;;
49722;SDS011;43484;43.608;1.458;2023-04-19T07:45:02;10.15;;;3.25;;
49722;SDS011;43484;43.608;1.458;2023-04-19T07:47:28;7.05;;;3.35;;
49722;SDS011;43484;43.608;1.458;2023-04-19T07:49:56;10.95;;;3.47;;
49722;SDS011;43484;43.608;1.458;2023-04-19T07:52:23;8.57;;;3.78;;
49722;SDS011;43484;43.608;1.458;2023-04-19T07:54:49;8.32;;;2.75;;
49722;SDS011;43484;43.608;1.458;2023-04-19T07:57:16;4.40;;;3.03;;
49722;SDS011;43484;43.608;1.458;2023-04-19T07:59:42;10.05;;;3.30;;
49722;SDS011;43484;43.608;1.458;2023-04-19T08:02:09;7.78;;;3.10;;
49722;SDS011;43484;43.608;1.458;2023-04-19T08:04:36;8.18;;;3.05;;
49722;SDS011;43484;43.608;1.458;2023-04-19T08:07:03;6.57;;;2.53;;
49722;SDS011;43484;43.608;1.458;2023-04-19T08:09:32;6.00;;;2.60;;
49722;SDS011;43484;43.608;1.458;2023-04-19T08:11:59;7.10;;;2.78;;
49722;SDS011;43484;43.608;1.458;2023-04-19T08:14:26;8.98;;;2.85;;
49722;SDS011;43484;43.608;1.458;2023-04-19T08:17:05;6.95;;;3.58;;
49722;SDS011;43484;43.608;1.458;2023-04-19T08:19:51;3.85;;;2.50;;
49722;SDS011;43484;43.608;1.458;2023-04-19T08:22:18;15.82;;;3.40;;
49722;SDS011;43484;43.608;1.458;2023-04-19T08:24:47;9.57;;;2.80;;
49722;SDS011;43484;43.608;1.458;2023-04-19T08:27:15;8.68;;;3.00;;
49722;SDS011;43484;43.608;1.458;2023-04-19T08:29:41;7.03;;;2.83;;
49722;SDS011;43484;43.608;1.458;2023-04-19T08:32:09;17.25;;;3.95;;
49722;SDS011;43484;43.608;1.458;2023-04-19T08:34:37;7.13;;;2.47;;
49722;SDS011;43484;43.608;1.458;2023-04-19T08:37:04;119.32;;;9.10;;
49722;SDS011;43484;43.608;1.458;2023-04-19T08:39:32;9.68;;;3.35;;
49722;SDS011;43484;43.608;1.458;2023-04-19T08:42:03;5.60;;;2.50;;
49722;SDS011;43484;43.608;1.458;2023-04-19T08:44:43;6.70;;;2.33;;
49722;SDS011;43484;43.608;1.458;2023-04-19T08:47:31;6.55;;;2.05;;
49722;SDS011;43484;43.608;1.458;2023-04-19T08:50:00;4.93;;;2.13;;
49722;SDS011;43484;43.608;1.458;2023-04-19T08:52:34;8.32;;;2.55;;
49722;SDS011;43484;43.608;1.458;2023-04-19T08:55:17;9.55;;;2.47;;
49722;SDS011;43484;43.608;1.458;2023-04-19T08:57:44;7.47;;;2.28;;
49722;SDS011;43484;43.608;1.458;2023-04-19T09:00:10;4.82;;;2.35;;
49722;SDS011;43484;43.608;1.458;2023-04-19T09:05:13;10.70;;;2.53;;
49722;SDS011;43484;43.608;1.458;2023-04-19T09:07:41;4.72;;;1.80;;
49722;SDS011;43484;43.608;1.458;2023-04-19T09:10:08;6.10;;;2.20;;
49722;SDS011;43484;43.608;1.458;2023-04-19T09:12:38;6.82;;;1.90;;
49722;SDS011;43484;43.608;1.458;2023-04-19T09:15:06;6.05;;;2.08;;
49722;SDS011;43484;43.608;1.458;2023-04-19T09:17:34;4.80;;;2.55;;
49722;SDS011;43484;43.608;1.458;2023-04-19T09:20:02;2.75;;;1.65;;
49722;SDS011;43484;43.608;1.458;2023-04-19T09:22:30;4.50;;;1.70;;
49722;SDS011;43484;43.608;1.458;2023-04-19T09:24:57;4.07;;;1.50;;
49722;SDS011;43484;43.608;1.458;2023-04-19T09:27:32;9.77;;;2.17;;
49722;SDS011;43484;43.608;1.458;2023-04-19T09:30:00;3.88;;;1.30;;
49722;SDS011;43484;43.608;1.458;2023-04-19T09:32:28;5.63;;;2.05;;
49722;SDS011;43484;43.608;1.458;2023-04-19T09:35:11;3.70;;;1.80;;
49722;SDS011;43484;43.608;1.458;2023-04-19T09:37:38;6.85;;;2.08;;
49722;SDS011;43484;43.608;1.458;2023-04-19T09:40:26;8.82;;;1.80;;
49722;SDS011;43484;43.608;1.458;2023-04-19T09:42:53;4.63;;;1.50;;
49722;SDS011;43484;43.608;1.458;2023-04-19T09:48:09;7.30;;;1.70;;
49722;SDS011;43484;43.608;1.458;2023-04-19T09:50:49;3.78;;;1.40;;
49722;SDS011;43484;43.608;1.458;2023-04-19T09:53:27;5.00;;;1.70;;
49722;SDS011;43484;43.608;1.458;2023-04-19T09:55:55;5.57;;;1.77;;
49722;SDS011;43484;43.608;1.458;2023-04-19T09:58:28;6.72;;;1.67;;
49722;SDS011;43484;43.608;1.458;2023-04-19T10:01:09;4.75;;;1.42;;
49722;SDS011;43484;43.608;1.458;2023-04-19T10:06:13;3.22;;;1.40;;
49722;SDS011;43484;43.608;1.458;2023-04-19T10:09:02;7.50;;;1.75;;
49722;SDS011;43484;43.608;1.458;2023-04-19T10:11:33;5.20;;;1.55;;
49722;SDS011;43484;43.608;1.458;2023-04-19T10:14:10;5.97;;;1.60;;
49722;SDS011;43484;43.608;1.458;2023-04-19T10:16:37;3.40;;;1.58;;
49722;SDS011;43484;43.608;1.458;2023-04-19T10:19:07;7.72;;;2.25;;
49722;SDS011;43484;43.608;1.458;2023-04-19T10:21:36;6.45;;;1.77;;
49722;SDS011;43484;43.608;1.458;2023-04-19T10:24:03;6.93;;;1.45;;
49722;SDS011;43484;43.608;1.458;2023-04-19T10:26:31;2.88;;;1.20;;
49722;SDS011;43484;43.608;1.458;2023-04-19T10:32:22;7.70;;;1.70;;
49722;SDS011;43484;43.608;1.458;2023-04-19T10:34:52;6.90;;;1.70;;
49722;SDS011;43484;43.608;1.458;2023-04-19T10:37:22;4.50;;;1.08;;
49722;SDS011;43484;43.608;1.458;2023-04-19T10:39:51;3.97;;;1.27;;
49722;SDS011;43484;43.608;1.458;2023-04-19T10:42:18;5.07;;;1.40;;
49722;SDS011;43484;43.608;1.458;2023-04-19T10:47:52;6.88;;;1.20;;
49722;SDS011;43484;43.608;1.458;2023-04-19T10:50:19;4.63;;;1.10;;
49722;SDS011;43484;43.608;1.458;2023-04-19T10:52:49;2.97;;;1.30;;
49722;SDS011;43484;43.608;1.458;2023-04-19T10:55:17;4.07;;;1.15;;
49722;SDS011;43484;43.608;1.458;2023-04-19T10:58:00;7.85;;;1.27;;
49722;SDS011;43484;43.608;1.458;2023-04-19T11:00:29;1.88;;;0.90;;
49722;SDS011;43484;43.608;1.458;2023-04-19T11:06:14;5.60;;;1.60;;
49722;SDS011;43484;43.608;1.458;2023-04-19T11:08:44;6.95;;;1.05;;
49722;SDS011;43484;43.608;1.458;2023-04-19T11:11:10;4.60;;;0.82;;
49722;SDS011;43484;43.608;1.458;2023-04-19T11:13:39;7.05;;;1.40;;
49722;SDS011;43484;43.608;1.458;2023-04-19T11:16:08;6.72;;;1.20;;
49722;SDS011;43484;43.608;1.458;2023-04-19T11:18:35;3.15;;;1.08;;
49722;SDS011;43484;43.608;1.458;2023-04-19T11:21:01;5.15;;;1.02;;
49722;SDS011;43484;43.608;1.458;2023-04-19T11:23:28;14.80;;;1.88;;
49722;SDS011;43484;43.608;1.458;2023-04-19T11:25:55;4.55;;;1.10;;
49722;SDS011;43484;43.608;1.458;2023-04-19T11:28:22;6.70;;;0.75;;
49722;SDS011;43484;43.608;1.458;2023-04-19T11:30:49;37.45;;;4.55;;
49722;SDS011;43484;43.608;1.458;2023-04-19T11:33:18;3.00;;;1.25;;
49722;SDS011;43484;43.608;1.458;2023-04-19T11:35:50;7.35;;;1.77;;
49722;SDS011;43484;43.608;1.458;2023-04-19T11:38:16;4.43;;;1.00;;
49722;SDS011;43484;43.608;1.458;2023-04-19T11:40:43;5.43;;;1.05;;
49722;SDS011;43484;43.608;1.458;2023-04-19T11:43:09;7.43;;;0.90;;
49722;SDS011;43484;43.608;1.458;2023-04-19T11:45:37;3.88;;;1.00;;
49722;SDS011;43484;43.608;1.458;2023-04-19T11:48:05;2.85;;;1.05;;
49722;SDS011;43484;43.608;1.458;2023-04-19T11:50:34;3.05;;;0.90;;
49722;SDS011;43484;43.608;1.458;2023-04-19T11:53:19;4.13;;;0.80;;
49722;SDS011;43484;43.608;1.458;2023-04-19T11:55:54;7.72;;;1.25;;
49722;SDS011;43484;43.608;1.458;2023-04-19T11:58:27;8.90;;;1.10;;
49722;SDS011;43484;43.608;1.458;2023-04-19T12:03:32;3.72;;;0.75;;
49722;SDS011;43484;43.608;1.458;2023-04-19T12:06:01;7.47;;;1.00;;
49722;SDS011;43484;43.608;1.458;2023-04-19T12:08:33;3.78;;;1.00;;
49722;SDS011;43484;43.608;1.458;2023-04-19T12:11:01;3.58;;;0.90;;
49722;SDS011;43484;43.608;1.458;2023-04-19T12:13:29;2.60;;;0.55;;
49722;SDS011;43484;43.608;1.458;2023-04-19T12:15:57;3.70;;;1.30;;
49722;SDS011;43484;43.608;1.458;2023-04-19T12:18:24;4.28;;;1.35;;
49722;SDS011;43484;43.608;1.458;2023-04-19T12:20:52;2.22;;;1.13;;
49722;SDS011;43484;43.608;1.458;2023-04-19T12:23:20;8.57;;;0.93;;
49722;SDS011;43484;43.608;1.458;2023-04-19T12:25:47;6.45;;;1.30;;
49722;SDS011;43484;43.608;1.458;2023-04-19T12:28:14;3.50;;;1.05;;
49722;SDS011;43484;43.608;1.458;2023-04-19T12:30:42;12.80;;;1.70;;
49722;SDS011;43484;43.608;1.458;2023-04-19T12:33:09;7.28;;;1.30;;
49722;SDS011;43484;43.608;1.458;2023-04-19T12:35:36;4.80;;;1.35;;
49722;SDS011;43484;43.608;1.458;2023-04-19T12:38:03;2.17;;;0.80;;
49722;SDS011;43484;43.608;1.458;2023-04-19T12:40:30;8.90;;;1.25;;
49722;SDS011;43484;43.608;1.458;2023-04-19T12:42:57;1.83;;;0.90;;
49722;SDS011;43484;43.608;1.458;2023-04-19T12:45:24;9.30;;;1.10;;
49722;SDS011;43484;43.608;1.458;2023-04-19T12:47:50;5.90;;;0.93;;
49722;SDS011;43484;43.608;1.458;2023-04-19T12:50:17;3.92;;;0.68;;
49722;SDS011;43484;43.608;1.458;2023-04-19T12:52:43;7.35;;;1.45;;
49722;SDS011;43484;43.608;1.458;2023-04-19T12:55:11;4.57;;;0.70;;
49722;SDS011;43484;43.608;1.458;2023-04-19T12:57:37;5.07;;;0.98;;
49722;SDS011;43484;43.608;1.458;2023-04-19T13:00:04;16.65;;;2.05;;
49722;SDS011;43484;43.608;1.458;2023-04-19T13:02:32;3.10;;;1.05;;
49722;SDS011;43484;43.608;1.458;2023-04-19T13:05:00;3.17;;;0.80;;
49722;SDS011;43484;43.608;1.458;2023-04-19T13:07:27;6.40;;;1.20;;
49722;SDS011;43484;43.608;1.458;2023-04-19T13:09:55;12.63;;;2.42;;
49722;SDS011;43484;43.608;1.458;2023-04-19T13:12:22;4.30;;;0.90;;
49722;SDS011;43484;43.608;1.458;2023-04-19T13:14:49;7.00;;;1.35;;
49722;SDS011;43484;43.608;1.458;2023-04-19T13:17:18;8.73;;;1.25;;
49722;SDS011;43484;43.608;1.458;2023-04-19T13:19:45;1.75;;;0.77;;
49722;SDS011;43484;43.608;1.458;2023-04-19T13:22:12;20.52;;;2.35;;
49722;SDS011;43484;43.608;1.458;2023-04-19T13:24:39;7.32;;;1.10;;
49722;SDS011;43484;43.608;1.458;2023-04-19T13:27:06;10.15;;;1.55;;
49722;SDS011;43484;43.608;1.458;2023-04-19T13:29:34;12.15;;;2.17;;
49722;SDS011;43484;43.608;1.458;2023-04-19T13:32:01;3.33;;;0.75;;
49722;SDS011;43484;43.608;1.458;2023-04-19T13:34:28;16.08;;;2.40;;
49722;SDS011;43484;43.608;1.458;2023-04-19T13:36:54;4.35;;;0.70;;
49722;SDS011;43484;43.608;1.458;2023-04-19T13:39:22;5.63;;;0.80;;
49722;SDS011;43484;43.608;1.458;2023-04-19T13:41:49;3.97;;;1.10;;
49722;SDS011;43484;43.608;1.458;2023-04-19T13:44:16;29.17;;;3.90;;
49722;SDS011;43484;43.608;1.458;2023-04-19T13:46:43;3.17;;;0.90;;
49722;SDS011;43484;43.608;1.458;2023-04-19T13:49:10;5.50;;;0.80;;
49722;SDS011;43484;43.608;1.458;2023-04-19T13:51:36;10.52;;;1.40;;
49722;SDS011;43484;43.608;1.458;2023-04-19T13:54:15;7.50;;;0.82;;
49722;SDS011;43484;43.608;1.458;2023-04-19T13:56:46;38.70;;;3.85;;
49722;SDS011;43484;43.608;1.458;2023-04-19T13:59:17;5.95;;;0.88;;
49722;SDS011;43484;43.608;1.458;2023-04-19T14:01:43;1.23;;;0.85;;
49722;SDS011;43484;43.608;1.458;2023-04-19T14:04:10;1.33;;;0.57;;
49722;SDS011;43484;43.608;1.458;2023-04-19T14:06:37;3.95;;;0.70;;
49722;SDS011;43484;43.608;1.458;2023-04-19T14:09:03;32.35;;;4.20;;
49722;SDS011;43484;43.608;1.458;2023-04-19T14:11:30;3.85;;;0.88;;
49722;SDS011;43484;43.608;1.458;2023-04-19T14:13:57;13.32;;;1.77;;
49722;SDS011;43484;43.608;1.458;2023-04-19T14:16:24;2.22;;;0.60;;
49722;SDS011;43484;43.608;1.458;2023-04-19T14:18:50;5.90;;;1.70;;
49722;SDS011;43484;43.608;1.458;2023-04-19T14:21:17;4.70;;;0.88;;
49722;SDS011;43484;43.608;1.458;2023-04-19T14:23:44;9.48;;;1.00;;
49722;SDS011;43484;43.608;1.458;2023-04-19T14:26:11;2.35;;;1.00;;
49722;SDS011;43484;43.608;1.458;2023-04-19T14:28:37;4.50;;;1.00;;
49722;SDS011;43484;43.608;1.458;2023-04-19T14:31:04;5.93;;;0.70;;
49722;SDS011;43484;43.608;1.458;2023-04-19T14:33:31;6.25;;;0.80;;
49722;SDS011;43484;43.608;1.458;2023-04-19T14:35:58;6.68;;;1.20;;
49722;SDS011;43484;43.608;1.458;2023-04-19T14:38:25;7.03;;;0.90;;
49722;SDS011;43484;43.608;1.458;2023-04-19T14:40:51;2.00;;;0.70;;
49722;SDS011;43484;43.608;1.458;2023-04-19T14:43:18;8.18;;;1.92;;
49722;SDS011;43484;43.608;1.458;2023-04-19T14:45:46;14.27;;;1.60;;
49722;SDS011;43484;43.608;1.458;2023-04-19T14:48:13;2.00;;;0.70;;
49722;SDS011;43484;43.608;1.458;2023-04-19T14:50:40;2.22;;;0.65;;
49722;SDS011;43484;43.608;1.458;2023-04-19T14:53:07;6.30;;;0.77;;
49722;SDS011;43484;43.608;1.458;2023-04-19T14:55:35;1.67;;;0.63;;
49722;SDS011;43484;43.608;1.458;2023-04-19T14:58:03;5.82;;;0.63;;
49722;SDS011;43484;43.608;1.458;2023-04-19T15:00:29;3.30;;;0.88;;
49722;SDS011;43484;43.608;1.458;2023-04-19T15:02:56;1.80;;;0.75;;
49722;SDS011;43484;43.608;1.458;2023-04-19T15:05:24;8.02;;;1.77;;
49722;SDS011;43484;43.608;1.458;2023-04-19T15:07:52;19.88;;;2.08;;
49722;SDS011;43484;43.608;1.458;2023-04-19T15:10:19;2.95;;;0.70;;